sensor_id;sensor_type;location;lat;lon;timestamp;P1;durP1;ratioP1;P2;durP2;ratioP2
39778;SDS011;25454;49.878;8.618;2023-01-29T00:03:20;8.10;;;5.83;;
39778;SDS011;25454;49.878;8.618;2023-01-29T00:08:21;5.97;;;4.80;;
39778;SDS011;25454;49.878;8.618;2023-01-29T00:13:21;8.30;;;4.80;;
39778;SDS011;25454;49.878;8.618;2023-01-29T00:18:22;5.93;;;4.60;;
39778;SDS011;25454;49.878;8.618;2023-01-29T00:23:23;5.03;;;4.23;;
39778;SDS011;25454;49.878;8.618;2023-01-29T00:28:24;7.43;;;4.93;;
39778;SDS011;25454;49.878;8.618;2023-01-29T00:33:24;6.07;;;4.80;;
39778;SDS011;25454;49.878;8.618;2023-01-29T00:38:25;6.67;;;5.10;;
39778;SDS011;25454;49.878;8.618;2023-01-29T00:43:25;7.27;;;5.13;;
39778;SDS011;25454;49.878;8.618;2023-01-29T00:48:44;8.67;;;5.37;;
39778;SDS011;25454;49.878;8.618;2023-01-29T00:53:45;6.93;;;5.00;;
39778;SDS011;25454;49.878;8.618;2023-01-29T00:58:45;6.53;;;4.93;;
39778;SDS011;25454;49.878;8.618;2023-01-29T01:03:46;8.20;;;5.20;;
39778;SDS011;25454;49.878;8.618;2023-01-29T01:08:46;5.97;;;4.43;;
39778;SDS011;25454;49.878;8.618;2023-01-29T01:14:08;5.57;;;4.20;;
39778;SDS011;25454;49.878;8.618;2023-01-29T01:19:09;9.20;;;5.10;;
39778;SDS011;25454;49.878;8.618;2023-01-29T01:24:10;6.20;;;4.57;;
39778;SDS011;25454;49.878;8.618;2023-01-29T01:29:12;5.17;;;4.40;;
39778;SDS011;25454;49.878;8.618;2023-01-29T01:34:12;8.27;;;4.57;;
39778;SDS011;25454;49.878;8.618;2023-01-29T01:39:13;6.40;;;4.47;;
39778;SDS011;25454;49.878;8.618;2023-01-29T01:49:51;6.30;;;4.53;;
39778;SDS011;25454;49.878;8.618;2023-01-29T01:54:53;5.77;;;4.30;;
39778;SDS011;25454;49.878;8.618;2023-01-29T01:59:55;4.97;;;4.40;;
39778;SDS011;25454;49.878;8.618;2023-01-29T02:05:00;5.23;;;4.40;;
39778;SDS011;25454;49.878;8.618;2023-01-29T02:10:19;7.17;;;4.50;;
39778;SDS011;25454;49.878;8.618;2023-01-29T02:15:20;5.90;;;4.50;;
39778;SDS011;25454;49.878;8.618;2023-01-29T02:20:26;7.43;;;4.90;;
39778;SDS011;25454;49.878;8.618;2023-01-29T02:30:35;5.80;;;4.43;;
39778;SDS011;25454;49.878;8.618;2023-01-29T02:35:53;6.40;;;5.00;;
39778;SDS011;25454;49.878;8.618;2023-01-29T02:41:06;6.73;;;4.80;;
39778;SDS011;25454;49.878;8.618;2023-01-29T02:46:17;5.03;;;4.53;;
39778;SDS011;25454;49.878;8.618;2023-01-29T02:51:30;5.33;;;4.73;;
39778;SDS011;25454;49.878;8.618;2023-01-29T02:56:39;6.20;;;4.60;;
39778;SDS011;25454;49.878;8.618;2023-01-29T03:01:51;6.37;;;5.00;;
39778;SDS011;25454;49.878;8.618;2023-01-29T03:06:59;8.10;;;5.67;;
39778;SDS011;25454;49.878;8.618;2023-01-29T03:12:06;6.77;;;5.50;;
39778;SDS011;25454;49.878;8.618;2023-01-29T03:17:34;7.17;;;4.80;;
39778;SDS011;25454;49.878;8.618;2023-01-29T03:22:59;6.63;;;5.10;;
39778;SDS011;25454;49.878;8.618;2023-01-29T03:28:03;6.93;;;5.43;;
39778;SDS011;25454;49.878;8.618;2023-01-29T03:33:24;9.20;;;5.83;;
39778;SDS011;25454;49.878;8.618;2023-01-29T03:38:26;7.13;;;5.20;;
39778;SDS011;25454;49.878;8.618;2023-01-29T03:43:32;6.13;;;4.93;;
39778;SDS011;25454;49.878;8.618;2023-01-29T03:48:35;6.97;;;5.70;;
39778;SDS011;25454;49.878;8.618;2023-01-29T03:59:12;5.90;;;5.13;;
39778;SDS011;25454;49.878;8.618;2023-01-29T04:04:20;8.63;;;5.53;;
39778;SDS011;25454;49.878;8.618;2023-01-29T04:09:47;7.13;;;5.50;;
39778;SDS011;25454;49.878;8.618;2023-01-29T04:15:00;7.80;;;5.70;;
39778;SDS011;25454;49.878;8.618;2023-01-29T04:20:02;7.73;;;5.63;;
39778;SDS011;25454;49.878;8.618;2023-01-29T04:25:04;7.07;;;5.40;;
39778;SDS011;25454;49.878;8.618;2023-01-29T04:30:33;7.40;;;5.47;;
39778;SDS011;25454;49.878;8.618;2023-01-29T04:46:40;7.67;;;5.87;;
39778;SDS011;25454;49.878;8.618;2023-01-29T04:56:54;9.03;;;6.63;;
39778;SDS011;25454;49.878;8.618;2023-01-29T05:02:02;10.33;;;6.00;;
39778;SDS011;25454;49.878;8.618;2023-01-29T05:07:06;7.23;;;5.27;;
39778;SDS011;25454;49.878;8.618;2023-01-29T05:12:11;6.50;;;5.80;;
39778;SDS011;25454;49.878;8.618;2023-01-29T05:17:15;7.70;;;6.17;;
39778;SDS011;25454;49.878;8.618;2023-01-29T05:22:18;8.63;;;6.57;;
39778;SDS011;25454;49.878;8.618;2023-01-29T05:27:23;8.37;;;6.23;;
39778;SDS011;25454;49.878;8.618;2023-01-29T05:32:50;6.60;;;6.00;;
39778;SDS011;25454;49.878;8.618;2023-01-29T05:37:50;6.77;;;6.00;;
39778;SDS011;25454;49.878;8.618;2023-01-29T05:42:51;8.00;;;7.20;;
39778;SDS011;25454;49.878;8.618;2023-01-29T05:47:58;6.80;;;6.10;;
39778;SDS011;25454;49.878;8.618;2023-01-29T05:53:03;9.03;;;6.23;;
39778;SDS011;25454;49.878;8.618;2023-01-29T05:58:04;7.60;;;5.70;;
39778;SDS011;25454;49.878;8.618;2023-01-29T06:03:05;7.97;;;6.00;;
39778;SDS011;25454;49.878;8.618;2023-01-29T06:08:08;11.97;;;6.03;;
39778;SDS011;25454;49.878;8.618;2023-01-29T06:13:09;7.03;;;6.13;;
39778;SDS011;25454;49.878;8.618;2023-01-29T06:18:10;6.33;;;4.63;;
39778;SDS011;25454;49.878;8.618;2023-01-29T06:23:10;6.13;;;5.10;;
39778;SDS011;25454;49.878;8.618;2023-01-29T06:28:11;5.87;;;5.27;;
39778;SDS011;25454;49.878;8.618;2023-01-29T06:33:11;5.50;;;5.00;;
39778;SDS011;25454;49.878;8.618;2023-01-29T06:38:12;4.77;;;4.20;;
39778;SDS011;25454;49.878;8.618;2023-01-29T06:43:12;5.27;;;4.77;;
39778;SDS011;25454;49.878;8.618;2023-01-29T06:48:13;6.70;;;6.00;;
39778;SDS011;25454;49.878;8.618;2023-01-29T06:53:14;6.30;;;5.63;;
39778;SDS011;25454;49.878;8.618;2023-01-29T06:58:15;8.63;;;6.03;;
39778;SDS011;25454;49.878;8.618;2023-01-29T07:03:15;8.37;;;5.93;;
39778;SDS011;25454;49.878;8.618;2023-01-29T07:08:16;5.93;;;5.33;;
39778;SDS011;25454;49.878;8.618;2023-01-29T07:13:17;8.47;;;6.37;;
39778;SDS011;25454;49.878;8.618;2023-01-29T07:18:17;12.10;;;6.87;;
39778;SDS011;25454;49.878;8.618;2023-01-29T07:23:18;8.00;;;6.70;;
39778;SDS011;25454;49.878;8.618;2023-01-29T07:28:18;6.60;;;5.53;;
39778;SDS011;25454;49.878;8.618;2023-01-29T07:33:19;8.00;;;6.37;;
39778;SDS011;25454;49.878;8.618;2023-01-29T07:38:20;8.67;;;6.50;;
39778;SDS011;25454;49.878;8.618;2023-01-29T07:43:20;6.97;;;5.80;;
39778;SDS011;25454;49.878;8.618;2023-01-29T07:48:23;6.53;;;5.83;;
39778;SDS011;25454;49.878;8.618;2023-01-29T07:53:24;6.30;;;5.70;;
39778;SDS011;25454;49.878;8.618;2023-01-29T07:58:26;13.27;;;6.10;;
39778;SDS011;25454;49.878;8.618;2023-01-29T08:03:26;7.37;;;6.30;;
39778;SDS011;25454;49.878;8.618;2023-01-29T08:08:27;7.10;;;6.10;;
39778;SDS011;25454;49.878;8.618;2023-01-29T08:13:31;10.77;;;5.93;;
39778;SDS011;25454;49.878;8.618;2023-01-29T08:18:32;6.03;;;5.40;;
39778;SDS011;25454;49.878;8.618;2023-01-29T08:23:35;7.27;;;5.77;;
39778;SDS011;25454;49.878;8.618;2023-01-29T08:28:36;6.00;;;4.90;;
39778;SDS011;25454;49.878;8.618;2023-01-29T08:33:37;6.57;;;5.30;;
39778;SDS011;25454;49.878;8.618;2023-01-29T08:38:38;5.87;;;5.27;;
39778;SDS011;25454;49.878;8.618;2023-01-29T08:43:40;6.13;;;5.43;;
39778;SDS011;25454;49.878;8.618;2023-01-29T08:48:40;7.43;;;4.87;;
39778;SDS011;25454;49.878;8.618;2023-01-29T08:53:41;15.37;;;11.03;;
39778;SDS011;25454;49.878;8.618;2023-01-29T08:58:42;6.07;;;4.53;;
39778;SDS011;25454;49.878;8.618;2023-01-29T09:03:44;5.23;;;4.60;;
39778;SDS011;25454;49.878;8.618;2023-01-29T09:08:45;6.20;;;4.73;;
39778;SDS011;25454;49.878;8.618;2023-01-29T09:13:45;6.60;;;5.17;;
39778;SDS011;25454;49.878;8.618;2023-01-29T09:18:46;6.40;;;5.50;;
39778;SDS011;25454;49.878;8.618;2023-01-29T09:23:46;5.80;;;4.87;;
39778;SDS011;25454;49.878;8.618;2023-01-29T09:28:47;5.90;;;5.10;;
39778;SDS011;25454;49.878;8.618;2023-01-29T09:33:47;5.63;;;4.93;;
39778;SDS011;25454;49.878;8.618;2023-01-29T09:38:48;5.03;;;4.53;;
39778;SDS011;25454;49.878;8.618;2023-01-29T09:43:53;5.17;;;4.50;;
39778;SDS011;25454;49.878;8.618;2023-01-29T09:49:01;5.70;;;4.37;;
39778;SDS011;25454;49.878;8.618;2023-01-29T09:59:11;10.63;;;6.30;;
39778;SDS011;25454;49.878;8.618;2023-01-29T10:04:23;7.17;;;5.03;;
39778;SDS011;25454;49.878;8.618;2023-01-29T10:15:46;8.60;;;7.07;;
39778;SDS011;25454;49.878;8.618;2023-01-29T10:21:04;8.23;;;6.73;;
39778;SDS011;25454;49.878;8.618;2023-01-29T10:26:25;8.90;;;7.70;;
39778;SDS011;25454;49.878;8.618;2023-01-29T10:31:31;12.60;;;7.27;;
39778;SDS011;25454;49.878;8.618;2023-01-29T10:36:41;7.37;;;6.17;;
39778;SDS011;25454;49.878;8.618;2023-01-29T10:46:59;9.30;;;6.87;;
39778;SDS011;25454;49.878;8.618;2023-01-29T10:58:04;8.57;;;7.27;;
39778;SDS011;25454;49.878;8.618;2023-01-29T11:08:28;6.57;;;5.93;;
39778;SDS011;25454;49.878;8.618;2023-01-29T11:13:41;8.57;;;6.17;;
39778;SDS011;25454;49.878;8.618;2023-01-29T11:18:52;7.73;;;6.20;;
39778;SDS011;25454;49.878;8.618;2023-01-29T11:24:05;8.30;;;6.50;;
39778;SDS011;25454;49.878;8.618;2023-01-29T11:34:34;7.43;;;5.90;;
39778;SDS011;25454;49.878;8.618;2023-01-29T11:39:54;7.40;;;5.50;;
39778;SDS011;25454;49.878;8.618;2023-01-29T11:44:55;7.50;;;5.57;;
39778;SDS011;25454;49.878;8.618;2023-01-29T11:49:56;6.50;;;5.90;;
39778;SDS011;25454;49.878;8.618;2023-01-29T11:55:00;8.53;;;6.63;;
39778;SDS011;25454;49.878;8.618;2023-01-29T12:00:12;7.13;;;5.97;;
39778;SDS011;25454;49.878;8.618;2023-01-29T12:05:25;9.97;;;5.67;;
39778;SDS011;25454;49.878;8.618;2023-01-29T12:10:39;7.53;;;5.43;;
39778;SDS011;25454;49.878;8.618;2023-01-29T12:15:41;5.50;;;5.00;;
39778;SDS011;25454;49.878;8.618;2023-01-29T12:21:17;10.13;;;5.10;;
39778;SDS011;25454;49.878;8.618;2023-01-29T12:26:26;7.00;;;5.40;;
39778;SDS011;25454;49.878;8.618;2023-01-29T12:31:39;6.27;;;4.93;;
39778;SDS011;25454;49.878;8.618;2023-01-29T12:36:57;6.43;;;5.53;;
39778;SDS011;25454;49.878;8.618;2023-01-29T12:42:14;6.67;;;5.20;;
39778;SDS011;25454;49.878;8.618;2023-01-29T12:47:21;5.80;;;5.00;;
39778;SDS011;25454;49.878;8.618;2023-01-29T12:52:36;7.07;;;5.30;;
39778;SDS011;25454;49.878;8.618;2023-01-29T12:57:41;6.77;;;6.00;;
39778;SDS011;25454;49.878;8.618;2023-01-29T13:03:05;6.83;;;5.80;;
39778;SDS011;25454;49.878;8.618;2023-01-29T13:08:17;9.60;;;6.60;;
39778;SDS011;25454;49.878;8.618;2023-01-29T13:13:23;7.83;;;5.73;;
39778;SDS011;25454;49.878;8.618;2023-01-29T13:23:55;6.47;;;5.20;;
39778;SDS011;25454;49.878;8.618;2023-01-29T13:28:59;6.73;;;5.73;;
39778;SDS011;25454;49.878;8.618;2023-01-29T13:34:20;8.43;;;6.27;;
39778;SDS011;25454;49.878;8.618;2023-01-29T13:39:34;6.00;;;5.37;;
39778;SDS011;25454;49.878;8.618;2023-01-29T13:44:46;7.73;;;6.23;;
39778;SDS011;25454;49.878;8.618;2023-01-29T13:49:54;8.83;;;7.37;;
39778;SDS011;25454;49.878;8.618;2023-01-29T13:55:04;9.30;;;7.20;;
39778;SDS011;25454;49.878;8.618;2023-01-29T14:10:34;11.63;;;5.87;;
39778;SDS011;25454;49.878;8.618;2023-01-29T14:15:36;7.17;;;5.83;;
39778;SDS011;25454;49.878;8.618;2023-01-29T14:26:00;10.57;;;7.33;;
39778;SDS011;25454;49.878;8.618;2023-01-29T14:31:07;8.60;;;6.80;;
39778;SDS011;25454;49.878;8.618;2023-01-29T14:36:13;9.87;;;8.30;;
39778;SDS011;25454;49.878;8.618;2023-01-29T14:51:35;8.33;;;7.10;;
39778;SDS011;25454;49.878;8.618;2023-01-29T14:57:01;10.57;;;7.67;;
39778;SDS011;25454;49.878;8.618;2023-01-29T15:02:10;10.30;;;8.00;;
39778;SDS011;25454;49.878;8.618;2023-01-29T15:07:28;12.63;;;7.90;;
39778;SDS011;25454;49.878;8.618;2023-01-29T15:12:36;9.83;;;7.63;;
39778;SDS011;25454;49.878;8.618;2023-01-29T15:17:51;8.53;;;7.23;;
39778;SDS011;25454;49.878;8.618;2023-01-29T15:23:00;8.63;;;6.70;;
39778;SDS011;25454;49.878;8.618;2023-01-29T15:28:02;10.67;;;7.57;;
39778;SDS011;25454;49.878;8.618;2023-01-29T15:33:07;11.97;;;7.80;;
39778;SDS011;25454;49.878;8.618;2023-01-29T15:38:17;10.00;;;7.53;;
39778;SDS011;25454;49.878;8.618;2023-01-29T15:43:20;10.73;;;8.10;;
39778;SDS011;25454;49.878;8.618;2023-01-29T15:48:30;10.23;;;7.97;;
39778;SDS011;25454;49.878;8.618;2023-01-29T15:53:36;11.67;;;8.07;;
39778;SDS011;25454;49.878;8.618;2023-01-29T15:58:41;10.33;;;8.43;;
39778;SDS011;25454;49.878;8.618;2023-01-29T16:03:47;10.47;;;7.87;;
39778;SDS011;25454;49.878;8.618;2023-01-29T16:08:50;12.27;;;8.60;;
39778;SDS011;25454;49.878;8.618;2023-01-29T16:13:53;11.33;;;8.10;;
39778;SDS011;25454;49.878;8.618;2023-01-29T16:18:54;12.93;;;9.20;;
39778;SDS011;25454;49.878;8.618;2023-01-29T16:23:58;13.03;;;9.33;;
39778;SDS011;25454;49.878;8.618;2023-01-29T16:29:16;13.93;;;9.60;;
39778;SDS011;25454;49.878;8.618;2023-01-29T16:39:23;14.83;;;10.43;;
39778;SDS011;25454;49.878;8.618;2023-01-29T16:44:36;15.13;;;10.27;;
39778;SDS011;25454;49.878;8.618;2023-01-29T16:54:41;13.23;;;9.77;;
39778;SDS011;25454;49.878;8.618;2023-01-29T16:59:42;16.57;;;11.37;;
39778;SDS011;25454;49.878;8.618;2023-01-29T17:04:44;16.37;;;11.97;;
39778;SDS011;25454;49.878;8.618;2023-01-29T17:09:51;17.20;;;12.03;;
39778;SDS011;25454;49.878;8.618;2023-01-29T17:15:00;17.20;;;12.37;;
39778;SDS011;25454;49.878;8.618;2023-01-29T17:20:13;17.77;;;12.80;;
39778;SDS011;25454;49.878;8.618;2023-01-29T17:25:15;22.63;;;14.20;;
39778;SDS011;25454;49.878;8.618;2023-01-29T17:30:20;20.23;;;13.97;;
39778;SDS011;25454;49.878;8.618;2023-01-29T17:35:25;20.20;;;12.40;;
39778;SDS011;25454;49.878;8.618;2023-01-29T17:41:10;19.67;;;12.57;;
39778;SDS011;25454;49.878;8.618;2023-01-29T17:45:52;20.63;;;13.83;;
39778;SDS011;25454;49.878;8.618;2023-01-29T17:50:53;20.10;;;13.40;;
39778;SDS011;25454;49.878;8.618;2023-01-29T17:55:58;19.30;;;13.23;;
39778;SDS011;25454;49.878;8.618;2023-01-29T18:00:59;20.93;;;13.60;;
39778;SDS011;25454;49.878;8.618;2023-01-29T18:06:00;22.77;;;14.40;;
39778;SDS011;25454;49.878;8.618;2023-01-29T18:11:00;17.30;;;12.20;;
39778;SDS011;25454;49.878;8.618;2023-01-29T18:16:01;19.13;;;13.53;;
39778;SDS011;25454;49.878;8.618;2023-01-29T18:21:01;23.33;;;13.57;;
39778;SDS011;25454;49.878;8.618;2023-01-29T18:26:02;22.40;;;14.00;;
39778;SDS011;25454;49.878;8.618;2023-01-29T18:31:03;21.30;;;12.90;;
39778;SDS011;25454;49.878;8.618;2023-01-29T18:36:04;22.30;;;13.57;;
39778;SDS011;25454;49.878;8.618;2023-01-29T18:41:06;20.83;;;14.00;;
39778;SDS011;25454;49.878;8.618;2023-01-29T18:46:09;22.43;;;13.57;;
39778;SDS011;25454;49.878;8.618;2023-01-29T18:51:10;19.40;;;12.60;;
39778;SDS011;25454;49.878;8.618;2023-01-29T18:56:10;21.93;;;13.77;;
39778;SDS011;25454;49.878;8.618;2023-01-29T19:01:11;20.40;;;13.73;;
39778;SDS011;25454;49.878;8.618;2023-01-29T19:06:12;21.63;;;13.37;;
39778;SDS011;25454;49.878;8.618;2023-01-29T19:11:13;23.37;;;14.23;;
39778;SDS011;25454;49.878;8.618;2023-01-29T19:16:13;22.53;;;13.30;;
39778;SDS011;25454;49.878;8.618;2023-01-29T19:21:14;21.17;;;13.53;;
39778;SDS011;25454;49.878;8.618;2023-01-29T19:26:15;23.17;;;12.93;;
39778;SDS011;25454;49.878;8.618;2023-01-29T19:31:16;22.27;;;12.20;;
39778;SDS011;25454;49.878;8.618;2023-01-29T19:36:16;22.73;;;12.80;;
39778;SDS011;25454;49.878;8.618;2023-01-29T19:41:17;18.63;;;12.00;;
39778;SDS011;25454;49.878;8.618;2023-01-29T19:46:17;17.30;;;12.37;;
39778;SDS011;25454;49.878;8.618;2023-01-29T19:51:18;19.33;;;12.90;;
39778;SDS011;25454;49.878;8.618;2023-01-29T19:56:20;19.60;;;12.53;;
39778;SDS011;25454;49.878;8.618;2023-01-29T20:01:20;18.37;;;11.73;;
39778;SDS011;25454;49.878;8.618;2023-01-29T20:06:24;19.57;;;12.63;;
39778;SDS011;25454;49.878;8.618;2023-01-29T20:11:27;19.03;;;12.40;;
39778;SDS011;25454;49.878;8.618;2023-01-29T20:16:28;21.40;;;13.53;;
39778;SDS011;25454;49.878;8.618;2023-01-29T20:21:28;17.60;;;11.50;;
39778;SDS011;25454;49.878;8.618;2023-01-29T20:26:29;18.93;;;12.20;;
39778;SDS011;25454;49.878;8.618;2023-01-29T20:31:30;17.63;;;11.57;;
39778;SDS011;25454;49.878;8.618;2023-01-29T20:36:30;16.77;;;11.40;;
39778;SDS011;25454;49.878;8.618;2023-01-29T20:41:31;17.90;;;12.20;;
39778;SDS011;25454;49.878;8.618;2023-01-29T20:46:34;19.77;;;12.77;;
39778;SDS011;25454;49.878;8.618;2023-01-29T20:51:35;17.57;;;11.40;;
39778;SDS011;25454;49.878;8.618;2023-01-29T20:56:36;18.47;;;12.60;;
39778;SDS011;25454;49.878;8.618;2023-01-29T21:01:36;18.93;;;11.87;;
39778;SDS011;25454;49.878;8.618;2023-01-29T21:06:37;16.33;;;11.60;;
39778;SDS011;25454;49.878;8.618;2023-01-29T21:11:37;16.50;;;11.50;;
39778;SDS011;25454;49.878;8.618;2023-01-29T21:16:38;16.67;;;12.13;;
39778;SDS011;25454;49.878;8.618;2023-01-29T21:21:39;16.17;;;11.47;;
39778;SDS011;25454;49.878;8.618;2023-01-29T21:26:39;19.13;;;11.50;;
39778;SDS011;25454;49.878;8.618;2023-01-29T21:31:40;16.43;;;11.83;;
39778;SDS011;25454;49.878;8.618;2023-01-29T21:36:41;16.25;;;13.63;;
39778;SDS011;25454;49.878;8.618;2023-01-29T21:41:42;17.17;;;12.20;;
39778;SDS011;25454;49.878;8.618;2023-01-29T21:47:02;16.60;;;11.87;;
39778;SDS011;25454;49.878;8.618;2023-01-29T21:52:11;18.47;;;13.00;;
39778;SDS011;25454;49.878;8.618;2023-01-29T21:57:14;17.63;;;12.43;;
39778;SDS011;25454;49.878;8.618;2023-01-29T22:02:16;17.27;;;12.93;;
39778;SDS011;25454;49.878;8.618;2023-01-29T22:07:16;16.67;;;12.53;;
39778;SDS011;25454;49.878;8.618;2023-01-29T22:12:17;19.70;;;13.40;;
39778;SDS011;25454;49.878;8.618;2023-01-29T22:17:17;19.73;;;13.00;;
39778;SDS011;25454;49.878;8.618;2023-01-29T22:22:19;18.70;;;13.20;;
39778;SDS011;25454;49.878;8.618;2023-01-29T22:27:19;17.77;;;13.00;;
39778;SDS011;25454;49.878;8.618;2023-01-29T22:32:20;19.37;;;13.63;;
39778;SDS011;25454;49.878;8.618;2023-01-29T22:37:20;20.67;;;13.30;;
39778;SDS011;25454;49.878;8.618;2023-01-29T22:42:21;18.30;;;13.10;;
39778;SDS011;25454;49.878;8.618;2023-01-29T22:47:22;19.70;;;13.10;;
39778;SDS011;25454;49.878;8.618;2023-01-29T22:52:22;18.43;;;13.43;;
39778;SDS011;25454;49.878;8.618;2023-01-29T22:57:23;18.90;;;13.57;;
39778;SDS011;25454;49.878;8.618;2023-01-29T23:02:23;20.03;;;13.93;;
39778;SDS011;25454;49.878;8.618;2023-01-29T23:07:24;20.77;;;14.23;;
39778;SDS011;25454;49.878;8.618;2023-01-29T23:12:25;22.13;;;14.20;;
39778;SDS011;25454;49.878;8.618;2023-01-29T23:17:25;20.13;;;14.53;;
39778;SDS011;25454;49.878;8.618;2023-01-29T23:22:26;20.83;;;14.30;;
39778;SDS011;25454;49.878;8.618;2023-01-29T23:27:26;19.27;;;14.00;;
39778;SDS011;25454;49.878;8.618;2023-01-29T23:32:30;18.90;;;13.87;;
39778;SDS011;25454;49.878;8.618;2023-01-29T23:37:30;19.27;;;13.13;;
39778;SDS011;25454;49.878;8.618;2023-01-29T23:42:31;20.40;;;13.37;;
39778;SDS011;25454;49.878;8.618;2023-01-29T23:47:31;20.63;;;14.50;;
39778;SDS011;25454;49.878;8.618;2023-01-29T23:52:32;20.97;;;13.97;;
39778;SDS011;25454;49.878;8.618;2023-01-29T23:57:32;19.73;;;13.90;;
